sensor_id;sensor_type;location;lat;lon;timestamp;P1;durP1;ratioP1;P2;durP2;ratioP2
21816;SDS011;13247;47.504;7.382;2023-02-28T00:01:27;5.70;;;3.78;;
21816;SDS011;13247;47.504;7.382;2023-02-28T00:04:11;8.00;;;3.65;;
21816;SDS011;13247;47.504;7.382;2023-02-28T00:06:56;4.95;;;3.25;;
21816;SDS011;13247;47.504;7.382;2023-02-28T00:09:40;5.80;;;3.45;;
21816;SDS011;13247;47.504;7.382;2023-02-28T00:12:25;4.88;;;3.30;;
21816;SDS011;13247;47.504;7.382;2023-02-28T00:15:10;6.22;;;3.97;;
21816;SDS011;13247;47.504;7.382;2023-02-28T00:17:55;5.75;;;3.90;;
21816;SDS011;13247;47.504;7.382;2023-02-28T00:20:40;5.75;;;3.90;;
21816;SDS011;13247;47.504;7.382;2023-02-28T00:23:25;5.93;;;3.90;;
21816;SDS011;13247;47.504;7.382;2023-02-28T00:26:10;5.93;;;3.60;;
21816;SDS011;13247;47.504;7.382;2023-02-28T00:28:55;6.38;;;3.72;;
21816;SDS011;13247;47.504;7.382;2023-02-28T00:31:40;8.23;;;4.05;;
21816;SDS011;13247;47.504;7.382;2023-02-28T00:34:24;6.95;;;3.65;;
21816;SDS011;13247;47.504;7.382;2023-02-28T00:37:09;7.22;;;3.80;;
21816;SDS011;13247;47.504;7.382;2023-02-28T00:39:58;5.45;;;3.90;;
21816;SDS011;13247;47.504;7.382;2023-02-28T00:42:42;8.88;;;4.22;;
21816;SDS011;13247;47.504;7.382;2023-02-28T00:45:27;7.35;;;3.67;;
21816;SDS011;13247;47.504;7.382;2023-02-28T00:48:11;8.50;;;4.20;;
21816;SDS011;13247;47.504;7.382;2023-02-28T00:50:56;5.93;;;4.07;;
21816;SDS011;13247;47.504;7.382;2023-02-28T00:53:41;7.03;;;4.05;;
21816;SDS011;13247;47.504;7.382;2023-02-28T00:56:25;6.63;;;4.25;;
21816;SDS011;13247;47.504;7.382;2023-02-28T00:59:10;7.10;;;4.22;;
21816;SDS011;13247;47.504;7.382;2023-02-28T01:01:55;7.93;;;4.50;;
21816;SDS011;13247;47.504;7.382;2023-02-28T01:04:39;6.50;;;3.97;;
21816;SDS011;13247;47.504;7.382;2023-02-28T01:07:24;6.85;;;4.43;;
21816;SDS011;13247;47.504;7.382;2023-02-28T01:10:09;6.90;;;3.97;;
21816;SDS011;13247;47.504;7.382;2023-02-28T01:12:54;8.13;;;4.25;;
21816;SDS011;13247;47.504;7.382;2023-02-28T01:15:39;5.18;;;3.90;;
21816;SDS011;13247;47.504;7.382;2023-02-28T01:18:29;7.28;;;4.30;;
21816;SDS011;13247;47.504;7.382;2023-02-28T01:21:15;10.50;;;3.80;;
21816;SDS011;13247;47.504;7.382;2023-02-28T01:24:02;7.00;;;4.13;;
21816;SDS011;13247;47.504;7.382;2023-02-28T01:26:48;5.90;;;4.25;;
21816;SDS011;13247;47.504;7.382;2023-02-28T01:29:32;6.78;;;4.18;;
21816;SDS011;13247;47.504;7.382;2023-02-28T01:32:17;5.93;;;4.07;;
21816;SDS011;13247;47.504;7.382;2023-02-28T01:35:01;8.18;;;4.00;;
21816;SDS011;13247;47.504;7.382;2023-02-28T01:37:46;5.22;;;4.07;;
21816;SDS011;13247;47.504;7.382;2023-02-28T01:40:31;7.57;;;4.55;;
21816;SDS011;13247;47.504;7.382;2023-02-28T01:43:20;6.22;;;4.30;;
21816;SDS011;13247;47.504;7.382;2023-02-28T01:46:06;6.60;;;3.95;;
21816;SDS011;13247;47.504;7.382;2023-02-28T01:48:51;7.63;;;4.47;;
21816;SDS011;13247;47.504;7.382;2023-02-28T01:51:47;7.82;;;4.60;;
21816;SDS011;13247;47.504;7.382;2023-02-28T01:54:38;6.30;;;3.63;;
21816;SDS011;13247;47.504;7.382;2023-02-28T01:57:24;7.10;;;4.25;;
21816;SDS011;13247;47.504;7.382;2023-02-28T02:00:14;7.00;;;4.50;;
21816;SDS011;13247;47.504;7.382;2023-02-28T02:03:05;11.77;;;5.07;;
21816;SDS011;13247;47.504;7.382;2023-02-28T02:05:52;8.13;;;5.55;;
21816;SDS011;13247;47.504;7.382;2023-02-28T02:08:37;7.00;;;4.80;;
21816;SDS011;13247;47.504;7.382;2023-02-28T02:11:22;6.05;;;4.32;;
21816;SDS011;13247;47.504;7.382;2023-02-28T02:14:11;6.20;;;4.28;;
21816;SDS011;13247;47.504;7.382;2023-02-28T02:20:13;12.05;;;5.95;;
21816;SDS011;13247;47.504;7.382;2023-02-28T02:26:21;7.68;;;4.53;;
21816;SDS011;13247;47.504;7.382;2023-02-28T02:38:59;6.10;;;4.22;;
21816;SDS011;13247;47.504;7.382;2023-02-28T02:41:51;5.80;;;4.50;;
21816;SDS011;13247;47.504;7.382;2023-02-28T02:44:40;6.85;;;4.80;;
21816;SDS011;13247;47.504;7.382;2023-02-28T02:47:33;8.65;;;4.53;;
21816;SDS011;13247;47.504;7.382;2023-02-28T02:50:24;5.13;;;3.10;;
21816;SDS011;13247;47.504;7.382;2023-02-28T02:53:15;6.07;;;3.33;;
21816;SDS011;13247;47.504;7.382;2023-02-28T02:56:05;6.07;;;3.58;;
21816;SDS011;13247;47.504;7.382;2023-02-28T02:58:50;4.38;;;3.22;;
21816;SDS011;13247;47.504;7.382;2023-02-28T03:01:39;5.28;;;3.30;;
21816;SDS011;13247;47.504;7.382;2023-02-28T03:04:26;4.88;;;3.25;;
21816;SDS011;13247;47.504;7.382;2023-02-28T03:07:16;8.48;;;3.55;;
21816;SDS011;13247;47.504;7.382;2023-02-28T03:10:00;5.25;;;3.35;;
21816;SDS011;13247;47.504;7.382;2023-02-28T03:12:48;4.07;;;3.30;;
21816;SDS011;13247;47.504;7.382;2023-02-28T03:31:51;6.38;;;3.28;;
21816;SDS011;13247;47.504;7.382;2023-02-28T03:34:42;5.03;;;3.30;;
21816;SDS011;13247;47.504;7.382;2023-02-28T03:37:58;7.25;;;4.15;;
21816;SDS011;13247;47.504;7.382;2023-02-28T03:40:51;4.82;;;3.58;;
21816;SDS011;13247;47.504;7.382;2023-02-28T03:43:53;6.75;;;4.30;;
21816;SDS011;13247;47.504;7.382;2023-02-28T03:47:01;5.95;;;4.13;;
21816;SDS011;13247;47.504;7.382;2023-02-28T03:49:53;5.90;;;3.65;;
21816;SDS011;13247;47.504;7.382;2023-02-28T03:52:45;6.68;;;4.15;;
21816;SDS011;13247;47.504;7.382;2023-02-28T03:55:45;6.65;;;4.30;;
21816;SDS011;13247;47.504;7.382;2023-02-28T04:01:49;6.38;;;4.50;;
21816;SDS011;13247;47.504;7.382;2023-02-28T04:04:35;5.70;;;3.83;;
21816;SDS011;13247;47.504;7.382;2023-02-28T04:07:20;5.30;;;4.05;;
21816;SDS011;13247;47.504;7.382;2023-02-28T04:10:05;9.23;;;5.00;;
21816;SDS011;13247;47.504;7.382;2023-02-28T04:12:51;9.20;;;4.45;;
21816;SDS011;13247;47.504;7.382;2023-02-28T04:15:35;6.70;;;4.93;;
21816;SDS011;13247;47.504;7.382;2023-02-28T04:18:20;6.70;;;4.78;;
21816;SDS011;13247;47.504;7.382;2023-02-28T04:21:05;8.00;;;4.93;;
21816;SDS011;13247;47.504;7.382;2023-02-28T04:23:50;7.95;;;5.10;;
21816;SDS011;13247;47.504;7.382;2023-02-28T04:26:35;7.40;;;5.07;;
21816;SDS011;13247;47.504;7.382;2023-02-28T04:29:24;9.65;;;5.22;;
21816;SDS011;13247;47.504;7.382;2023-02-28T04:32:13;9.13;;;5.28;;
21816;SDS011;13247;47.504;7.382;2023-02-28T04:34:58;8.18;;;5.20;;
21816;SDS011;13247;47.504;7.382;2023-02-28T04:37:42;9.93;;;6.30;;
21816;SDS011;13247;47.504;7.382;2023-02-28T04:40:27;7.22;;;5.07;;
21816;SDS011;13247;47.504;7.382;2023-02-28T04:43:11;11.10;;;5.38;;
21816;SDS011;13247;47.504;7.382;2023-02-28T04:45:57;7.72;;;5.30;;
21816;SDS011;13247;47.504;7.382;2023-02-28T04:48:44;7.47;;;5.35;;
21816;SDS011;13247;47.504;7.382;2023-02-28T04:51:29;7.30;;;5.20;;
21816;SDS011;13247;47.504;7.382;2023-02-28T04:54:14;10.98;;;5.68;;
21816;SDS011;13247;47.504;7.382;2023-02-28T04:56:59;6.53;;;4.97;;
21816;SDS011;13247;47.504;7.382;2023-02-28T04:59:45;8.48;;;5.07;;
21816;SDS011;13247;47.504;7.382;2023-02-28T05:02:29;10.10;;;5.57;;
21816;SDS011;13247;47.504;7.382;2023-02-28T05:05:14;8.40;;;4.88;;
21816;SDS011;13247;47.504;7.382;2023-02-28T05:08:01;9.20;;;4.63;;
21816;SDS011;13247;47.504;7.382;2023-02-28T05:10:46;9.23;;;5.32;;
21816;SDS011;13247;47.504;7.382;2023-02-28T05:13:31;7.15;;;4.93;;
21816;SDS011;13247;47.504;7.382;2023-02-28T05:16:16;6.90;;;4.82;;
21816;SDS011;13247;47.504;7.382;2023-02-28T05:19:01;9.90;;;5.35;;
21816;SDS011;13247;47.504;7.382;2023-02-28T05:21:53;9.48;;;4.60;;
21816;SDS011;13247;47.504;7.382;2023-02-28T05:24:38;6.38;;;4.80;;
21816;SDS011;13247;47.504;7.382;2023-02-28T05:27:23;7.00;;;4.97;;
21816;SDS011;13247;47.504;7.382;2023-02-28T05:30:09;9.82;;;5.53;;
21816;SDS011;13247;47.504;7.382;2023-02-28T05:32:55;8.95;;;5.13;;
21816;SDS011;13247;47.504;7.382;2023-02-28T05:35:40;11.05;;;5.00;;
21816;SDS011;13247;47.504;7.382;2023-02-28T05:38:25;9.95;;;5.55;;
21816;SDS011;13247;47.504;7.382;2023-02-28T05:41:10;10.65;;;4.82;;
21816;SDS011;13247;47.504;7.382;2023-02-28T05:43:55;7.28;;;5.07;;
21816;SDS011;13247;47.504;7.382;2023-02-28T05:46:42;10.77;;;5.72;;
21816;SDS011;13247;47.504;7.382;2023-02-28T05:49:26;8.63;;;5.57;;
21816;SDS011;13247;47.504;7.382;2023-02-28T05:52:11;11.30;;;5.55;;
21816;SDS011;13247;47.504;7.382;2023-02-28T05:54:55;9.13;;;4.95;;
21816;SDS011;13247;47.504;7.382;2023-02-28T05:57:40;7.75;;;5.00;;
21816;SDS011;13247;47.504;7.382;2023-02-28T06:00:26;7.75;;;5.90;;
21816;SDS011;13247;47.504;7.382;2023-02-28T06:03:11;8.60;;;5.18;;
21816;SDS011;13247;47.504;7.382;2023-02-28T06:05:55;9.63;;;5.38;;
21816;SDS011;13247;47.504;7.382;2023-02-28T06:08:40;8.18;;;5.07;;
21816;SDS011;13247;47.504;7.382;2023-02-28T06:11:27;7.57;;;5.22;;
21816;SDS011;13247;47.504;7.382;2023-02-28T06:14:14;8.45;;;5.35;;
21816;SDS011;13247;47.504;7.382;2023-02-28T06:17:00;8.25;;;5.72;;
21816;SDS011;13247;47.504;7.382;2023-02-28T06:19:46;11.02;;;6.57;;
21816;SDS011;13247;47.504;7.382;2023-02-28T06:22:31;8.15;;;5.30;;
21816;SDS011;13247;47.504;7.382;2023-02-28T06:25:16;8.73;;;4.72;;
21816;SDS011;13247;47.504;7.382;2023-02-28T06:28:01;7.50;;;5.22;;
21816;SDS011;13247;47.504;7.382;2023-02-28T06:30:45;9.32;;;6.07;;
21816;SDS011;13247;47.504;7.382;2023-02-28T06:33:30;11.35;;;6.22;;
21816;SDS011;13247;47.504;7.382;2023-02-28T06:36:15;8.95;;;5.95;;
21816;SDS011;13247;47.504;7.382;2023-02-28T06:39:00;8.88;;;5.88;;
21816;SDS011;13247;47.504;7.382;2023-02-28T06:41:44;8.18;;;5.35;;
21816;SDS011;13247;47.504;7.382;2023-02-28T06:44:31;10.32;;;6.03;;
21816;SDS011;13247;47.504;7.382;2023-02-28T06:47:18;11.15;;;6.32;;
21816;SDS011;13247;47.504;7.382;2023-02-28T06:50:03;12.05;;;5.80;;
21816;SDS011;13247;47.504;7.382;2023-02-28T06:52:49;9.07;;;6.05;;
21816;SDS011;13247;47.504;7.382;2023-02-28T06:55:37;13.75;;;7.05;;
21816;SDS011;13247;47.504;7.382;2023-02-28T06:58:22;7.25;;;5.10;;
21816;SDS011;13247;47.504;7.382;2023-02-28T07:01:08;7.60;;;5.72;;
21816;SDS011;13247;47.504;7.382;2023-02-28T07:03:53;10.10;;;6.43;;
21816;SDS011;13247;47.504;7.382;2023-02-28T07:06:38;10.35;;;6.40;;
21816;SDS011;13247;47.504;7.382;2023-02-28T07:09:22;8.57;;;6.00;;
21816;SDS011;13247;47.504;7.382;2023-02-28T07:12:07;12.73;;;7.15;;
21816;SDS011;13247;47.504;7.382;2023-02-28T07:14:51;12.48;;;7.05;;
21816;SDS011;13247;47.504;7.382;2023-02-28T07:17:38;11.23;;;7.20;;
21816;SDS011;13247;47.504;7.382;2023-02-28T07:20:23;10.32;;;6.72;;
21816;SDS011;13247;47.504;7.382;2023-02-28T07:23:08;9.98;;;6.32;;
21816;SDS011;13247;47.504;7.382;2023-02-28T07:25:52;11.65;;;6.82;;
21816;SDS011;13247;47.504;7.382;2023-02-28T07:28:37;11.20;;;7.53;;
21816;SDS011;13247;47.504;7.382;2023-02-28T07:31:22;9.27;;;6.20;;
21816;SDS011;13247;47.504;7.382;2023-02-28T07:34:06;11.55;;;6.95;;
21816;SDS011;13247;47.504;7.382;2023-02-28T07:36:54;11.68;;;7.65;;
21816;SDS011;13247;47.504;7.382;2023-02-28T07:39:39;12.48;;;7.55;;
21816;SDS011;13247;47.504;7.382;2023-02-28T07:42:25;10.05;;;6.88;;
21816;SDS011;13247;47.504;7.382;2023-02-28T07:45:10;10.52;;;6.72;;
21816;SDS011;13247;47.504;7.382;2023-02-28T07:47:55;11.20;;;7.05;;
21816;SDS011;13247;47.504;7.382;2023-02-28T07:50:40;9.60;;;6.45;;
21816;SDS011;13247;47.504;7.382;2023-02-28T07:53:24;9.68;;;6.50;;
21816;SDS011;13247;47.504;7.382;2023-02-28T07:56:10;13.73;;;7.63;;
21816;SDS011;13247;47.504;7.382;2023-02-28T07:58:54;10.98;;;7.15;;
21816;SDS011;13247;47.504;7.382;2023-02-28T08:01:40;13.10;;;7.25;;
21816;SDS011;13247;47.504;7.382;2023-02-28T08:04:24;8.52;;;6.05;;
21816;SDS011;13247;47.504;7.382;2023-02-28T08:07:09;9.95;;;6.70;;
21816;SDS011;13247;47.504;7.382;2023-02-28T08:09:56;10.77;;;6.93;;
21816;SDS011;13247;47.504;7.382;2023-02-28T08:12:40;10.55;;;7.03;;
21816;SDS011;13247;47.504;7.382;2023-02-28T08:15:25;12.68;;;6.95;;
21816;SDS011;13247;47.504;7.382;2023-02-28T08:18:10;9.85;;;5.97;;
21816;SDS011;13247;47.504;7.382;2023-02-28T08:20:55;12.95;;;6.85;;
21816;SDS011;13247;47.504;7.382;2023-02-28T08:23:40;12.43;;;6.85;;
21816;SDS011;13247;47.504;7.382;2023-02-28T08:26:25;12.18;;;7.35;;
21816;SDS011;13247;47.504;7.382;2023-02-28T08:29:09;9.73;;;6.45;;
21816;SDS011;13247;47.504;7.382;2023-02-28T08:31:54;10.50;;;6.60;;
21816;SDS011;13247;47.504;7.382;2023-02-28T08:34:40;11.02;;;7.53;;
21816;SDS011;13247;47.504;7.382;2023-02-28T08:37:25;13.10;;;6.82;;
21816;SDS011;13247;47.504;7.382;2023-02-28T08:40:09;14.43;;;7.63;;
21816;SDS011;13247;47.504;7.382;2023-02-28T08:42:57;11.80;;;6.80;;
21816;SDS011;13247;47.504;7.382;2023-02-28T08:45:43;12.98;;;7.22;;
21816;SDS011;13247;47.504;7.382;2023-02-28T08:48:28;10.57;;;7.60;;
21816;SDS011;13247;47.504;7.382;2023-02-28T08:51:15;14.23;;;7.75;;
21816;SDS011;13247;47.504;7.382;2023-02-28T08:54:09;12.93;;;7.43;;
21816;SDS011;13247;47.504;7.382;2023-02-28T08:56:59;11.88;;;7.30;;
21816;SDS011;13247;47.504;7.382;2023-02-28T08:59:44;9.93;;;6.88;;
21816;SDS011;13247;47.504;7.382;2023-02-28T09:02:28;9.77;;;6.63;;
21816;SDS011;13247;47.504;7.382;2023-02-28T09:05:13;10.10;;;6.90;;
21816;SDS011;13247;47.504;7.382;2023-02-28T09:07:58;13.05;;;7.03;;
21816;SDS011;13247;47.504;7.382;2023-02-28T09:10:43;11.30;;;7.15;;
21816;SDS011;13247;47.504;7.382;2023-02-28T09:13:27;13.77;;;7.47;;
21816;SDS011;13247;47.504;7.382;2023-02-28T09:16:13;10.65;;;6.93;;
21816;SDS011;13247;47.504;7.382;2023-02-28T09:19:00;9.73;;;6.32;;
21816;SDS011;13247;47.504;7.382;2023-02-28T09:21:45;11.20;;;6.88;;
21816;SDS011;13247;47.504;7.382;2023-02-28T09:24:30;9.85;;;7.18;;
21816;SDS011;13247;47.504;7.382;2023-02-28T09:27:15;12.82;;;7.53;;
21816;SDS011;13247;47.504;7.382;2023-02-28T09:29:59;12.23;;;6.90;;
21816;SDS011;13247;47.504;7.382;2023-02-28T09:32:44;12.27;;;6.70;;
21816;SDS011;13247;47.504;7.382;2023-02-28T09:35:35;12.05;;;7.22;;
21816;SDS011;13247;47.504;7.382;2023-02-28T09:38:21;13.32;;;8.23;;
21816;SDS011;13247;47.504;7.382;2023-02-28T09:44:12;11.90;;;7.68;;
21816;SDS011;13247;47.504;7.382;2023-02-28T09:50:32;11.20;;;7.55;;
21816;SDS011;13247;47.504;7.382;2023-02-28T09:53:22;11.45;;;7.65;;
21816;SDS011;13247;47.504;7.382;2023-02-28T09:56:21;13.88;;;7.70;;
21816;SDS011;13247;47.504;7.382;2023-02-28T10:05:33;14.00;;;8.27;;
21816;SDS011;13247;47.504;7.382;2023-02-28T10:08:28;13.00;;;8.10;;
21816;SDS011;13247;47.504;7.382;2023-02-28T10:11:35;10.77;;;7.75;;
21816;SDS011;13247;47.504;7.382;2023-02-28T10:14:23;13.07;;;7.75;;
21816;SDS011;13247;47.504;7.382;2023-02-28T10:17:12;12.90;;;8.20;;
21816;SDS011;13247;47.504;7.382;2023-02-28T10:26:03;12.88;;;7.30;;
21816;SDS011;13247;47.504;7.382;2023-02-28T10:28:57;11.98;;;6.90;;
21816;SDS011;13247;47.504;7.382;2023-02-28T10:31:42;11.23;;;6.97;;
21816;SDS011;13247;47.504;7.382;2023-02-28T10:34:27;17.52;;;7.95;;
21816;SDS011;13247;47.504;7.382;2023-02-28T10:37:11;14.70;;;7.50;;
21816;SDS011;13247;47.504;7.382;2023-02-28T10:39:58;11.25;;;7.55;;
21816;SDS011;13247;47.504;7.382;2023-02-28T10:42:42;12.27;;;7.90;;
21816;SDS011;13247;47.504;7.382;2023-02-28T10:45:40;14.40;;;7.30;;
21816;SDS011;13247;47.504;7.382;2023-02-28T10:48:40;13.00;;;8.00;;
21816;SDS011;13247;47.504;7.382;2023-02-28T10:51:33;13.20;;;7.75;;
21816;SDS011;13247;47.504;7.382;2023-02-28T10:54:24;13.80;;;8.23;;
21816;SDS011;13247;47.504;7.382;2023-02-28T10:57:23;11.43;;;7.05;;
21816;SDS011;13247;47.504;7.382;2023-02-28T11:00:31;13.43;;;8.48;;
21816;SDS011;13247;47.504;7.382;2023-02-28T11:03:25;13.38;;;7.68;;
21816;SDS011;13247;47.504;7.382;2023-02-28T11:09:22;12.75;;;7.60;;
21816;SDS011;13247;47.504;7.382;2023-02-28T11:12:45;12.65;;;7.43;;
21816;SDS011;13247;47.504;7.382;2023-02-28T11:15:27;13.95;;;7.65;;
21816;SDS011;13247;47.504;7.382;2023-02-28T11:18:20;9.45;;;6.88;;
21816;SDS011;13247;47.504;7.382;2023-02-28T11:21:23;11.10;;;7.18;;
21816;SDS011;13247;47.504;7.382;2023-02-28T11:30:27;18.83;;;9.88;;
21816;SDS011;13247;47.504;7.382;2023-02-28T11:33:28;15.10;;;7.38;;
21816;SDS011;13247;47.504;7.382;2023-02-28T11:39:00;11.65;;;6.80;;
21816;SDS011;13247;47.504;7.382;2023-02-28T11:45:07;11.75;;;6.90;;
21816;SDS011;13247;47.504;7.382;2023-02-28T11:48:08;10.70;;;6.78;;
21816;SDS011;13247;47.504;7.382;2023-02-28T11:51:12;9.73;;;6.60;;
21816;SDS011;13247;47.504;7.382;2023-02-28T12:03:28;12.88;;;6.65;;
21816;SDS011;13247;47.504;7.382;2023-02-28T12:27:50;15.60;;;7.22;;
21816;SDS011;13247;47.504;7.382;2023-02-28T12:30:41;11.57;;;7.43;;
21816;SDS011;13247;47.504;7.382;2023-02-28T12:33:37;13.63;;;7.68;;
21816;SDS011;13247;47.504;7.382;2023-02-28T12:36:34;13.52;;;7.38;;
21816;SDS011;13247;47.504;7.382;2023-02-28T12:39:26;10.90;;;7.30;;
21816;SDS011;13247;47.504;7.382;2023-02-28T12:42:39;12.23;;;7.03;;
21816;SDS011;13247;47.504;7.382;2023-02-28T12:45:58;15.20;;;7.55;;
21816;SDS011;13247;47.504;7.382;2023-02-28T12:48:50;12.13;;;7.32;;
21816;SDS011;13247;47.504;7.382;2023-02-28T12:51:40;12.07;;;6.95;;
21816;SDS011;13247;47.504;7.382;2023-02-28T12:54:35;15.25;;;7.97;;
21816;SDS011;13247;47.504;7.382;2023-02-28T12:57:36;16.67;;;7.20;;
21816;SDS011;13247;47.504;7.382;2023-02-28T13:00:25;34.08;;;14.82;;
21816;SDS011;13247;47.504;7.382;2023-02-28T13:09:16;16.00;;;6.70;;
21816;SDS011;13247;47.504;7.382;2023-02-28T13:12:04;21.17;;;9.30;;
21816;SDS011;13247;47.504;7.382;2023-02-28T13:15:40;32.13;;;14.10;;
21816;SDS011;13247;47.504;7.382;2023-02-28T13:18:26;10.75;;;7.57;;
21816;SDS011;13247;47.504;7.382;2023-02-28T13:21:28;13.85;;;7.75;;
21816;SDS011;13247;47.504;7.382;2023-02-28T13:27:31;26.30;;;14.00;;
21816;SDS011;13247;47.504;7.382;2023-02-28T13:36:42;24.73;;;14.00;;
21816;SDS011;13247;47.504;7.382;2023-02-28T13:47:51;12.80;;;8.27;;
21816;SDS011;13247;47.504;7.382;2023-02-28T13:50:45;15.40;;;9.18;;
21816;SDS011;13247;47.504;7.382;2023-02-28T13:53:33;14.13;;;8.05;;
21816;SDS011;13247;47.504;7.382;2023-02-28T14:11:55;12.82;;;6.43;;
21816;SDS011;13247;47.504;7.382;2023-02-28T14:17:37;11.18;;;7.10;;
21816;SDS011;13247;47.504;7.382;2023-02-28T14:20:22;11.60;;;7.07;;
21816;SDS011;13247;47.504;7.382;2023-02-28T14:26:30;12.75;;;7.75;;
21816;SDS011;13247;47.504;7.382;2023-02-28T14:39:22;13.73;;;7.18;;
21816;SDS011;13247;47.504;7.382;2023-02-28T14:42:28;14.98;;;7.85;;
21816;SDS011;13247;47.504;7.382;2023-02-28T14:45:20;15.48;;;7.22;;
21816;SDS011;13247;47.504;7.382;2023-02-28T14:48:09;15.85;;;7.78;;
21816;SDS011;13247;47.504;7.382;2023-02-28T14:50:55;13.13;;;7.28;;
21816;SDS011;13247;47.504;7.382;2023-02-28T14:53:42;14.38;;;7.75;;
21816;SDS011;13247;47.504;7.382;2023-02-28T14:56:30;16.27;;;8.60;;
21816;SDS011;13247;47.504;7.382;2023-02-28T14:59:24;24.87;;;10.97;;
21816;SDS011;13247;47.504;7.382;2023-02-28T15:02:23;17.35;;;8.80;;
21816;SDS011;13247;47.504;7.382;2023-02-28T15:08:20;12.93;;;8.50;;
21816;SDS011;13247;47.504;7.382;2023-02-28T15:11:06;16.83;;;8.20;;
21816;SDS011;13247;47.504;7.382;2023-02-28T15:13:56;16.95;;;8.15;;
21816;SDS011;13247;47.504;7.382;2023-02-28T15:16:41;16.75;;;9.45;;
21816;SDS011;13247;47.504;7.382;2023-02-28T15:19:29;13.88;;;8.82;;
21816;SDS011;13247;47.504;7.382;2023-02-28T15:22:19;14.93;;;8.55;;
21816;SDS011;13247;47.504;7.382;2023-02-28T15:25:19;16.15;;;8.93;;
21816;SDS011;13247;47.504;7.382;2023-02-28T15:28:09;11.45;;;8.13;;
21816;SDS011;13247;47.504;7.382;2023-02-28T15:31:02;14.25;;;7.85;;
21816;SDS011;13247;47.504;7.382;2023-02-28T15:34:02;10.88;;;7.45;;
21816;SDS011;13247;47.504;7.382;2023-02-28T15:36:48;18.45;;;7.85;;
21816;SDS011;13247;47.504;7.382;2023-02-28T15:39:48;15.40;;;8.55;;
21816;SDS011;13247;47.504;7.382;2023-02-28T15:42:32;16.42;;;8.80;;
21816;SDS011;13247;47.504;7.382;2023-02-28T15:48:26;17.17;;;8.73;;
21816;SDS011;13247;47.504;7.382;2023-02-28T15:51:20;14.85;;;8.02;;
21816;SDS011;13247;47.504;7.382;2023-02-28T15:54:21;19.40;;;9.45;;
21816;SDS011;13247;47.504;7.382;2023-02-28T15:57:11;13.25;;;8.18;;
21816;SDS011;13247;47.504;7.382;2023-02-28T16:00:03;12.65;;;7.35;;
21816;SDS011;13247;47.504;7.382;2023-02-28T16:02:49;14.93;;;8.32;;
21816;SDS011;13247;47.504;7.382;2023-02-28T16:05:34;14.98;;;8.27;;
21816;SDS011;13247;47.504;7.382;2023-02-28T16:08:19;14.88;;;8.35;;
21816;SDS011;13247;47.504;7.382;2023-02-28T16:11:03;16.52;;;8.40;;
21816;SDS011;13247;47.504;7.382;2023-02-28T16:13:49;16.58;;;8.82;;
21816;SDS011;13247;47.504;7.382;2023-02-28T16:16:41;20.52;;;9.20;;
21816;SDS011;13247;47.504;7.382;2023-02-28T16:19:27;18.33;;;10.25;;
21816;SDS011;13247;47.504;7.382;2023-02-28T16:22:12;19.38;;;10.55;;
21816;SDS011;13247;47.504;7.382;2023-02-28T16:24:57;20.20;;;10.63;;
21816;SDS011;13247;47.504;7.382;2023-02-28T16:27:42;19.27;;;10.60;;
21816;SDS011;13247;47.504;7.382;2023-02-28T16:30:32;18.15;;;9.95;;
21816;SDS011;13247;47.504;7.382;2023-02-28T16:33:17;23.13;;;10.57;;
21816;SDS011;13247;47.504;7.382;2023-02-28T16:36:02;19.27;;;10.98;;
21816;SDS011;13247;47.504;7.382;2023-02-28T16:38:47;21.55;;;11.02;;
21816;SDS011;13247;47.504;7.382;2023-02-28T16:41:32;21.17;;;11.95;;
21816;SDS011;13247;47.504;7.382;2023-02-28T16:47:13;22.88;;;12.00;;
21816;SDS011;13247;47.504;7.382;2023-02-28T16:49:57;18.40;;;10.48;;
21816;SDS011;13247;47.504;7.382;2023-02-28T16:52:42;23.17;;;12.32;;
21816;SDS011;13247;47.504;7.382;2023-02-28T16:55:27;22.95;;;10.25;;
21816;SDS011;13247;47.504;7.382;2023-02-28T16:58:15;21.77;;;12.75;;
21816;SDS011;13247;47.504;7.382;2023-02-28T17:01:01;23.58;;;11.90;;
21816;SDS011;13247;47.504;7.382;2023-02-28T17:03:47;23.90;;;13.05;;
21816;SDS011;13247;47.504;7.382;2023-02-28T17:06:33;24.38;;;13.48;;
21816;SDS011;13247;47.504;7.382;2023-02-28T17:09:18;17.27;;;9.98;;
21816;SDS011;13247;47.504;7.382;2023-02-28T17:12:05;19.45;;;10.80;;
21816;SDS011;13247;47.504;7.382;2023-02-28T17:14:50;17.50;;;10.40;;
21816;SDS011;13247;47.504;7.382;2023-02-28T17:17:35;23.85;;;10.43;;
21816;SDS011;13247;47.504;7.382;2023-02-28T17:20:20;19.10;;;10.85;;
21816;SDS011;13247;47.504;7.382;2023-02-28T17:23:10;19.95;;;11.38;;
21816;SDS011;13247;47.504;7.382;2023-02-28T17:25:55;19.02;;;10.50;;
21816;SDS011;13247;47.504;7.382;2023-02-28T17:28:39;19.90;;;10.27;;
21816;SDS011;13247;47.504;7.382;2023-02-28T17:31:24;15.73;;;10.00;;
21816;SDS011;13247;47.504;7.382;2023-02-28T17:34:10;20.27;;;10.80;;
21816;SDS011;13247;47.504;7.382;2023-02-28T17:37:01;22.60;;;12.73;;
21816;SDS011;13247;47.504;7.382;2023-02-28T17:39:46;31.70;;;16.88;;
21816;SDS011;13247;47.504;7.382;2023-02-28T17:42:31;36.65;;;16.20;;
21816;SDS011;13247;47.504;7.382;2023-02-28T17:45:16;41.20;;;26.55;;
21816;SDS011;13247;47.504;7.382;2023-02-28T17:48:01;34.33;;;21.92;;
21816;SDS011;13247;47.504;7.382;2023-02-28T17:50:46;49.90;;;24.55;;
21816;SDS011;13247;47.504;7.382;2023-02-28T17:53:31;47.17;;;23.70;;
21816;SDS011;13247;47.504;7.382;2023-02-28T17:56:20;42.13;;;21.38;;
21816;SDS011;13247;47.504;7.382;2023-02-28T17:59:08;26.40;;;15.48;;
21816;SDS011;13247;47.504;7.382;2023-02-28T18:01:54;27.33;;;16.15;;
21816;SDS011;13247;47.504;7.382;2023-02-28T18:04:38;27.83;;;15.93;;
21816;SDS011;13247;47.504;7.382;2023-02-28T18:07:24;23.45;;;13.88;;
21816;SDS011;13247;47.504;7.382;2023-02-28T18:10:16;22.85;;;14.45;;
21816;SDS011;13247;47.504;7.382;2023-02-28T18:13:05;27.85;;;14.90;;
21816;SDS011;13247;47.504;7.382;2023-02-28T18:15:49;30.80;;;15.55;;
21816;SDS011;13247;47.504;7.382;2023-02-28T18:18:34;24.30;;;12.43;;
21816;SDS011;13247;47.504;7.382;2023-02-28T18:21:20;27.45;;;13.75;;
21816;SDS011;13247;47.504;7.382;2023-02-28T18:24:05;23.45;;;13.38;;
21816;SDS011;13247;47.504;7.382;2023-02-28T18:26:51;23.83;;;12.43;;
21816;SDS011;13247;47.504;7.382;2023-02-28T18:29:36;25.50;;;13.55;;
21816;SDS011;13247;47.504;7.382;2023-02-28T18:32:20;23.70;;;11.50;;
21816;SDS011;13247;47.504;7.382;2023-02-28T18:35:05;23.55;;;11.05;;
21816;SDS011;13247;47.504;7.382;2023-02-28T18:37:50;21.20;;;10.63;;
21816;SDS011;13247;47.504;7.382;2023-02-28T18:40:36;16.70;;;9.98;;
21816;SDS011;13247;47.504;7.382;2023-02-28T18:43:22;21.17;;;11.48;;
21816;SDS011;13247;47.504;7.382;2023-02-28T18:46:08;23.85;;;10.55;;
21816;SDS011;13247;47.504;7.382;2023-02-28T18:48:55;16.25;;;9.88;;
21816;SDS011;13247;47.504;7.382;2023-02-28T18:51:39;21.17;;;11.90;;
21816;SDS011;13247;47.504;7.382;2023-02-28T18:54:27;19.17;;;10.18;;
21816;SDS011;13247;47.504;7.382;2023-02-28T18:57:12;17.10;;;9.93;;
21816;SDS011;13247;47.504;7.382;2023-02-28T18:59:57;17.08;;;10.20;;
21816;SDS011;13247;47.504;7.382;2023-02-28T19:02:42;17.27;;;9.85;;
21816;SDS011;13247;47.504;7.382;2023-02-28T19:05:26;18.92;;;9.95;;
21816;SDS011;13247;47.504;7.382;2023-02-28T19:08:15;19.88;;;9.70;;
21816;SDS011;13247;47.504;7.382;2023-02-28T19:11:04;18.83;;;10.70;;
21816;SDS011;13247;47.504;7.382;2023-02-28T19:13:51;17.40;;;10.18;;
21816;SDS011;13247;47.504;7.382;2023-02-28T19:16:37;17.88;;;10.00;;
21816;SDS011;13247;47.504;7.382;2023-02-28T19:19:21;22.80;;;9.95;;
21816;SDS011;13247;47.504;7.382;2023-02-28T19:22:05;16.73;;;9.93;;
21816;SDS011;13247;47.504;7.382;2023-02-28T19:24:51;15.15;;;9.52;;
21816;SDS011;13247;47.504;7.382;2023-02-28T19:27:35;16.10;;;10.00;;